Time;durP1;ratioP1;P1;durP2;ratioP2;P2;SDS_P1;SDS_P2;PMS_P1;PMS_P2;Temp;Humidity;BMP_temperature;BMP_pressure;BME280_temperature;BME280_humidity;BME280_pressure;Samples;Min_cycle;Max_cycle;Signal;HPM_P1;HPM_P2
2022/09/14 00:01:21;;;;;;;;;;;18.00;99.90;;;;;;8410241;28;19932;-73
2022/09/14 00:05:27;;;;;;;;;;;18.00;99.90;;;;;;8409519;28;20486;-73
2022/09/14 00:09:29;;;;;;;;;;;17.90;99.90;;;;;;8402720;28;19920;-73
2022/09/14 00:13:31;;;;;;;;;;;17.90;99.90;;;;;;8401390;28;19930;-74
2022/09/14 00:17:32;;;;;;;;;;;17.80;99.90;;;;;;8402394;28;19928;-73
2022/09/14 00:21:35;;;;;;;;;;;17.80;99.90;;;;;;8397994;28;20015;-73
2022/09/14 00:25:37;;;;;;;;;;;17.80;99.90;;;;;;8401601;28;19921;-73
2022/09/14 00:29:38;;;;;;;;;;;17.70;99.90;;;;;;8385020;28;20015;-73
2022/09/14 00:33:41;;;;;;;;;;;17.70;99.90;;;;;;8399732;28;20366;-73
2022/09/14 00:37:42;;;;;;;;;;;17.70;99.90;;;;;;8399320;28;19957;-73
2022/09/14 00:41:45;;;;;;;;;;;17.60;99.90;;;;;;8400516;28;20310;-73
2022/09/14 00:45:47;;;;;;;;;;;17.60;99.90;;;;;;8382768;28;19927;-73
2022/09/14 00:49:48;;;;;;;;;;;17.60;99.90;;;;;;8397799;28;19928;-73
2022/09/14 00:53:50;;;;;;;;;;;17.60;99.90;;;;;;8400465;28;20018;-72
2022/09/14 00:57:52;;;;;;;;;;;17.50;99.90;;;;;;8404359;28;19924;-73
2022/09/14 01:01:54;;;;;;;;;;;17.50;99.90;;;;;;8406879;28;19920;-73
2022/09/14 01:06:17;;;;;;;;;;;17.50;99.90;;;;;;8395858;28;20283;-73
2022/09/14 01:10:24;;;;;;;;;;;17.50;99.90;;;;;;8380713;28;20403;-73
2022/09/14 01:14:46;;;;;;;;;;;17.50;99.90;;;;;;8403494;28;19928;-73
2022/09/14 01:18:56;;;;;;;;;;;17.50;99.90;;;;;;8408869;28;19924;-73
2022/09/14 01:23:10;;;;;;;;;;;17.40;99.90;;;;;;8409188;28;20333;-73
2022/09/14 01:27:20;;;;;;;;;;;17.40;99.90;;;;;;8392100;28;19920;-74
2022/09/14 01:31:27;;;;;;;;;;;17.40;99.90;;;;;;8383577;28;20067;-73
2022/09/14 01:35:37;;;;;;;;;;;17.40;99.90;;;;;;8387016;28;19936;-73
2022/09/14 01:39:40;;;;;;;;;;;17.40;99.90;;;;;;8383086;28;19924;-73
2022/09/14 01:43:45;;;;;;;;;;;17.30;99.90;;;;;;8399548;28;20272;-73
2022/09/14 01:47:51;;;;;;;;;;;17.30;99.90;;;;;;8397311;28;19924;-73
2022/09/14 01:51:55;;;;;;;;;;;17.30;99.90;;;;;;8412402;28;20425;-74
2022/09/14 01:56:00;;;;;;;;;;;17.30;99.90;;;;;;8406778;28;20381;-73
2022/09/14 02:00:06;;;;;;;;;;;17.30;99.90;;;;;;8414285;28;19924;-73
2022/09/14 02:04:10;;;;;;;;;;;17.30;99.90;;;;;;8410864;28;20128;-73
2022/09/14 02:08:12;;;;;;;;;;;17.30;99.90;;;;;;8395900;28;19959;-74
2022/09/14 02:12:14;;;;;;;;;;;17.30;99.90;;;;;;8407093;28;19927;-73
2022/09/14 02:16:16;;;;;;;;;;;17.30;99.90;;;;;;8406241;28;19920;-73
2022/09/14 02:20:21;;;;;;;;;;;17.30;99.90;;;;;;8393273;28;19920;-73
2022/09/14 02:24:23;;;;;;;;;;;17.30;99.90;;;;;;8397926;28;20328;-73
2022/09/14 02:28:24;;;;;;;;;;;17.20;99.90;;;;;;8401915;28;19920;-73
2022/09/14 02:32:26;;;;;;;;;;;17.30;99.90;;;;;;8402006;28;19927;-73
2022/09/14 02:36:35;;;;;;;;;;;17.30;99.90;;;;;;8401408;28;19929;-73
2022/09/14 02:40:40;;;;;;;;;;;17.20;99.90;;;;;;8405411;28;20414;-73
2022/09/14 02:44:46;;;;;;;;;;;17.20;99.90;;;;;;8403695;28;20397;-73
2022/09/14 02:48:58;;;;;;;;;;;17.20;99.90;;;;;;8402891;28;19928;-73
2022/09/14 02:53:09;;;;;;;;;;;17.20;99.90;;;;;;8409422;28;19952;-73
2022/09/14 02:57:11;;;;;;;;;;;17.20;99.90;;;;;;8401296;28;19940;-73
2022/09/14 03:01:14;;;;;;;;;;;17.20;99.90;;;;;;8397893;28;22066;-74
2022/09/14 03:05:15;;;;;;;;;;;17.20;99.90;;;;;;8395534;28;20367;-72
2022/09/14 03:09:17;;;;;;;;;;;17.10;99.90;;;;;;8398304;28;22356;-73
2022/09/14 03:13:19;;;;;;;;;;;17.10;99.90;;;;;;8408755;28;19920;-73
2022/09/14 03:17:20;;;;;;;;;;;17.00;99.90;;;;;;8398608;28;20023;-73
2022/09/14 03:21:22;;;;;;;;;;;17.00;99.90;;;;;;8391379;28;20023;-73
2022/09/14 03:25:24;;;;;;;;;;;17.00;99.90;;;;;;8403572;28;19959;-73
2022/09/14 03:29:26;;;;;;;;;;;17.00;99.90;;;;;;8403977;28;19927;-72
2022/09/14 03:33:27;;;;;;;;;;;17.00;99.90;;;;;;8404074;28;19971;-74
2022/09/14 03:37:29;;;;;;;;;;;17.00;99.90;;;;;;8403482;28;20363;-73
2022/09/14 03:41:30;;;;;;;;;;;17.00;99.90;;;;;;8400427;28;19928;-73
2022/09/14 03:45:32;;;;;;;;;;;17.00;99.90;;;;;;8404654;28;20024;-73
2022/09/14 03:49:34;;;;;;;;;;;17.00;99.90;;;;;;8401913;28;19927;-73
2022/09/14 03:53:36;;;;;;;;;;;16.90;99.90;;;;;;8412993;28;19919;-73
2022/09/14 03:57:37;;;;;;;;;;;16.90;99.90;;;;;;8387834;28;19920;-73
2022/09/14 04:01:40;;;;;;;;;;;16.80;99.90;;;;;;8406235;28;19924;-73
2022/09/14 04:05:42;;;;;;;;;;;16.90;99.90;;;;;;8398701;28;20011;-73
2022/09/14 04:09:44;;;;;;;;;;;16.80;99.90;;;;;;8392301;28;19939;-73
2022/09/14 04:13:46;;;;;;;;;;;16.80;99.90;;;;;;8405696;28;19920;-72
2022/09/14 04:17:47;;;;;;;;;;;16.70;99.90;;;;;;8401254;28;20027;-72
2022/09/14 04:21:49;;;;;;;;;;;16.70;99.90;;;;;;8395373;28;19930;-73
2022/09/14 04:36:05;;;;;;;;;;;16.60;99.90;;;;;;8399448;28;19985;-73
2022/09/14 04:40:07;;;;;;;;;;;16.60;99.90;;;;;;8386955;28;20364;-73
2022/09/14 04:44:09;;;;;;;;;;;16.60;99.90;;;;;;8404403;28;19939;-73
2022/09/14 04:48:10;;;;;;;;;;;16.60;99.90;;;;;;8401041;28;19920;-74
2022/09/14 04:52:12;;;;;;;;;;;16.50;99.90;;;;;;8400013;28;19921;-73
2022/09/14 04:56:13;;;;;;;;;;;16.50;99.90;;;;;;8384082;28;20267;-73
2022/09/14 05:00:15;;;;;;;;;;;16.50;99.90;;;;;;8409309;28;19934;-73
2022/09/14 05:04:17;;;;;;;;;;;16.50;99.90;;;;;;8403700;28;19920;-73
2022/09/14 05:08:18;;;;;;;;;;;16.40;99.90;;;;;;8402305;28;20019;-73
2022/09/14 05:12:20;;;;;;;;;;;16.40;99.90;;;;;;8398018;28;19930;-73
2022/09/14 05:16:26;;;;;;;;;;;16.40;99.90;;;;;;8397206;28;19927;-73
2022/09/14 05:20:28;;;;;;;;;;;16.40;99.90;;;;;;8411473;28;20020;-73
2022/09/14 05:24:30;;;;;;;;;;;16.30;99.90;;;;;;8402691;28;20403;-73
2022/09/14 05:28:32;;;;;;;;;;;16.40;99.90;;;;;;8425868;28;19978;-73
2022/09/14 05:32:34;;;;;;;;;;;16.30;99.90;;;;;;8408910;28;20342;-73
2022/09/14 05:36:36;;;;;;;;;;;16.30;99.90;;;;;;8385003;28;19938;-73
2022/09/14 05:40:38;;;;;;;;;;;16.30;99.90;;;;;;8409997;28;20283;-72
2022/09/14 05:44:40;;;;;;;;;;;16.30;99.90;;;;;;8415702;28;20036;-72
2022/09/14 05:48:42;;;;;;;;;;;16.30;99.90;;;;;;8410033;28;20023;-73
2022/09/14 05:52:43;;;;;;;;;;;16.30;99.90;;;;;;8387016;28;19928;-73
2022/09/14 05:56:45;;;;;;;;;;;16.30;99.90;;;;;;8397415;28;19921;-73
2022/09/14 06:00:47;;;;;;;;;;;16.20;99.90;;;;;;8408351;28;20362;-73
2022/09/14 06:04:48;;;;;;;;;;;16.30;99.90;;;;;;8399797;28;20002;-73
2022/09/14 06:08:52;;;;;;;;;;;16.30;99.90;;;;;;8406793;28;19947;-73
2022/09/14 06:12:54;;;;;;;;;;;16.30;99.90;;;;;;8406260;28;19959;-73
2022/09/14 06:16:56;;;;;;;;;;;16.30;99.90;;;;;;8391125;28;20379;-72
2022/09/14 06:20:58;;;;;;;;;;;16.20;99.90;;;;;;8412814;28;19926;-73
2022/09/14 06:24:59;;;;;;;;;;;16.30;99.90;;;;;;8406979;28;20266;-73
2022/09/14 06:29:01;;;;;;;;;;;16.30;99.90;;;;;;8401726;28;20284;-73
2022/09/14 06:33:03;;;;;;;;;;;16.30;99.90;;;;;;8413417;28;19935;-73
2022/09/14 06:37:05;;;;;;;;;;;16.30;99.90;;;;;;8416629;28;19920;-73
2022/09/14 06:41:08;;;;;;;;;;;16.30;99.90;;;;;;8409566;28;19951;-73
2022/09/14 06:45:09;;;;;;;;;;;16.30;99.90;;;;;;8402411;28;19970;-73
2022/09/14 06:49:12;;;;;;;;;;;16.40;99.90;;;;;;8415227;28;20422;-73
2022/09/14 06:53:14;;;;;;;;;;;16.40;99.90;;;;;;8421051;28;19924;-73
2022/09/14 06:57:15;;;;;;;;;;;16.40;99.90;;;;;;8414482;28;20014;-72
2022/09/14 07:01:21;;;;;;;;;;;16.40;99.90;;;;;;8411381;28;19970;-73
2022/09/14 07:05:22;;;;;;;;;;;16.50;99.90;;;;;;8406260;28;19928;-73
2022/09/14 07:09:24;;;;;;;;;;;16.50;99.90;;;;;;8377277;28;19923;-73
2022/09/14 07:13:27;;;;;;;;;;;16.50;99.90;;;;;;8400129;28;19920;-73
2022/09/14 07:17:28;;;;;;;;;;;16.60;99.90;;;;;;8400826;28;19920;-73
2022/09/14 07:21:30;;;;;;;;;;;16.60;99.90;;;;;;8401168;28;20023;-73
2022/09/14 07:25:32;;;;;;;;;;;16.60;99.90;;;;;;8398673;28;20302;-73
2022/09/14 07:29:34;;;;;;;;;;;16.60;99.90;;;;;;8399775;28;19935;-73
2022/09/14 07:33:35;;;;;;;;;;;16.60;99.90;;;;;;8399600;28;19921;-74
2022/09/14 07:37:37;;;;;;;;;;;16.60;99.90;;;;;;8401435;28;19924;-73
2022/09/14 07:41:39;;;;;;;;;;;16.60;99.90;;;;;;8386872;28;19954;-73
2022/09/14 07:45:40;;;;;;;;;;;16.60;99.90;;;;;;8395617;28;19924;-72
2022/09/14 07:49:42;;;;;;;;;;;16.60;99.90;;;;;;8395380;28;20372;-73
2022/09/14 07:53:44;;;;;;;;;;;16.60;99.90;;;;;;8402804;28;19986;-73
2022/09/14 07:57:46;;;;;;;;;;;16.60;99.90;;;;;;8395446;28;19934;-72
2022/09/14 08:01:56;;;;;;;;;;;16.60;99.90;;;;;;8394769;28;19920;-73
2022/09/14 08:06:03;;;;;;;;;;;16.60;99.90;;;;;;8396307;28;19924;-72
2022/09/14 08:10:04;;;;;;;;;;;16.60;99.90;;;;;;8396052;28;19929;-73
2022/09/14 08:14:10;;;;;;;;;;;16.60;99.90;;;;;;8400950;28;20014;-73
2022/09/14 08:18:13;;;;;;;;;;;16.70;99.90;;;;;;8390179;28;19920;-73
2022/09/14 08:22:14;;;;;;;;;;;16.70;99.90;;;;;;8400770;28;20024;-73
2022/09/14 08:26:17;;;;;;;;;;;16.70;99.90;;;;;;8394899;28;19923;-73
2022/09/14 08:30:19;;;;;;;;;;;16.70;99.90;;;;;;8398607;28;19931;-73
2022/09/14 08:34:20;;;;;;;;;;;16.80;99.90;;;;;;8401877;28;19925;-73
2022/09/14 08:38:23;;;;;;;;;;;16.80;99.90;;;;;;8403323;28;20294;-73
2022/09/14 08:42:25;;;;;;;;;;;16.80;99.90;;;;;;8394639;28;20332;-73
2022/09/14 08:46:34;;;;;;;;;;;16.80;99.90;;;;;;8398603;28;19924;-73
2022/09/14 08:50:36;;;;;;;;;;;16.80;99.90;;;;;;8382594;28;19920;-73
2022/09/14 08:54:39;;;;;;;;;;;16.90;99.90;;;;;;8389805;28;19928;-74
2022/09/14 08:58:50;;;;;;;;;;;16.90;99.90;;;;;;8396707;28;19971;-73
2022/09/14 09:03:01;;;;;;;;;;;16.90;99.90;;;;;;8393756;28;19932;-73
2022/09/14 09:07:21;;;;;;;;;;;16.90;99.90;;;;;;8393099;28;20302;-73
2022/09/14 09:11:25;;;;;;;;;;;16.90;99.90;;;;;;8397299;28;20016;-73
2022/09/14 09:15:29;;;;;;;;;;;17.00;99.90;;;;;;8399352;28;19924;-73
2022/09/14 09:19:40;;;;;;;;;;;17.00;99.90;;;;;;8393185;28;19932;-73
2022/09/14 09:23:42;;;;;;;;;;;17.00;99.90;;;;;;8380252;28;19931;-73
2022/09/14 09:27:46;;;;;;;;;;;17.00;99.90;;;;;;8394140;28;19965;-73
2022/09/14 09:31:50;;;;;;;;;;;17.10;99.90;;;;;;8395219;28;19926;-73
2022/09/14 09:35:52;;;;;;;;;;;17.10;99.90;;;;;;8378030;28;20326;-73
2022/09/14 09:39:54;;;;;;;;;;;17.20;99.90;;;;;;8400657;28;19932;-73
2022/09/14 09:43:55;;;;;;;;;;;17.20;99.90;;;;;;8380637;28;20375;-73
2022/09/14 09:48:07;;;;;;;;;;;17.30;99.90;;;;;;8394664;28;20054;-73
2022/09/14 09:52:10;;;;;;;;;;;17.30;99.90;;;;;;8395013;28;20266;-73
2022/09/14 10:01:32;;;;;;;;;;;17.40;99.90;;;;;;8395839;28;20003;-73
2022/09/14 10:05:33;;;;;;;;;;;17.50;99.90;;;;;;8394764;28;19947;-73
2022/09/14 10:25:12;;;;;;;;;;;17.60;99.90;;;;;;8403573;28;19915;-73
2022/09/14 10:29:17;;;;;;;;;;;17.60;99.90;;;;;;8402163;28;19936;-73
2022/09/14 10:33:18;;;;;;;;;;;17.60;99.90;;;;;;8406349;28;19977;-73
2022/09/14 10:37:30;;;;;;;;;;;17.60;99.90;;;;;;8396680;28;19938;-73
2022/09/14 10:41:38;;;;;;;;;;;17.60;99.90;;;;;;8405813;28;19978;-73
2022/09/14 10:45:43;;;;;;;;;;;17.60;99.90;;;;;;8402528;28;19920;-73
2022/09/14 10:49:50;;;;;;;;;;;17.60;99.90;;;;;;8398690;28;19927;-74
2022/09/14 10:59:01;;;;;;;;;;;17.60;99.90;;;;;;8400024;28;19942;-73
2022/09/14 11:03:17;;;;;;;;;;;17.60;99.90;;;;;;8399399;28;19942;-74
2022/09/14 11:07:37;;;;;;;;;;;17.70;99.90;;;;;;8397865;28;20029;-73
2022/09/14 11:11:47;;;;;;;;;;;17.70;99.90;;;;;;8401617;28;19920;-73
2022/09/14 11:16:12;;;;;;;;;;;17.80;99.90;;;;;;8393359;28;19926;-73
2022/09/14 11:20:25;;;;;;;;;;;17.80;99.90;;;;;;8392452;28;19986;-73
2022/09/14 11:24:41;;;;;;;;;;;17.90;99.90;;;;;;8394559;28;19990;-73
2022/09/14 11:28:47;;;;;;;;;;;17.90;99.90;;;;;;8394506;28;19924;-73
2022/09/14 11:33:06;;;;;;;;;;;18.00;99.90;;;;;;8394643;28;20385;-73
2022/09/14 11:37:10;;;;;;;;;;;18.00;99.90;;;;;;8396751;28;20831;-73
2022/09/14 11:41:27;;;;;;;;;;;18.00;99.90;;;;;;8377838;28;20031;-73
2022/09/14 11:45:39;;;;;;;;;;;18.00;99.90;;;;;;8395505;28;19930;-73
2022/09/14 11:50:04;;;;;;;;;;;18.00;99.90;;;;;;8401014;28;20294;-73
2022/09/14 11:54:11;;;;;;;;;;;18.00;99.90;;;;;;8398856;28;19920;-73
2022/09/14 11:58:20;;;;;;;;;;;18.00;99.90;;;;;;8390950;28;20240;-73
2022/09/14 12:02:22;;;;;;;;;;;18.00;99.90;;;;;;8399378;28;20369;-73
2022/09/14 12:06:29;;;;;;;;;;;18.00;99.90;;;;;;8395251;28;19927;-73
2022/09/14 12:10:51;;;;;;;;;;;18.10;99.90;;;;;;8397441;28;20034;-72
2022/09/14 12:14:57;;;;;;;;;;;18.10;99.90;;;;;;8398329;28;19920;-73
2022/09/14 12:18:59;;;;;;;;;;;18.10;99.90;;;;;;8396557;28;20328;-75
2022/09/14 12:23:05;;;;;;;;;;;18.20;99.90;;;;;;8375274;28;20310;-73
2022/09/14 12:27:22;;;;;;;;;;;18.20;99.90;;;;;;8391401;28;19926;-73
2022/09/14 12:31:30;;;;;;;;;;;18.20;99.90;;;;;;8391647;28;19924;-73
2022/09/14 12:35:35;;;;;;;;;;;18.30;99.90;;;;;;8391637;28;19931;-73
2022/09/14 12:39:37;;;;;;;;;;;18.40;99.90;;;;;;8399519;28;19972;-73
2022/09/14 12:43:39;;;;;;;;;;;18.40;99.90;;;;;;8386377;28;20267;-74
2022/09/14 12:47:48;;;;;;;;;;;18.50;99.90;;;;;;8396490;28;19920;-74
2022/09/14 12:51:50;;;;;;;;;;;18.50;99.90;;;;;;8396089;28;19927;-73
2022/09/14 12:55:55;;;;;;;;;;;18.50;99.90;;;;;;8393677;28;20006;-74
2022/09/14 12:59:57;;;;;;;;;;;18.50;99.90;;;;;;8392127;28;20291;-73
2022/09/14 13:03:58;;;;;;;;;;;18.60;99.90;;;;;;8384733;28;20417;-73
2022/09/14 13:08:07;;;;;;;;;;;18.60;99.90;;;;;;8395929;28;20390;-73
2022/09/14 13:12:10;;;;;;;;;;;18.70;99.90;;;;;;8376378;28;19938;-73
2022/09/14 13:16:14;;;;;;;;;;;18.70;99.90;;;;;;8395444;28;19959;-73
2022/09/14 13:20:17;;;;;;;;;;;18.90;99.90;;;;;;8399076;28;20006;-73
2022/09/14 13:24:35;;;;;;;;;;;18.90;99.90;;;;;;8394114;28;20267;-73
2022/09/14 13:28:36;;;;;;;;;;;19.00;99.90;;;;;;8384053;28;19920;-73
2022/09/14 13:32:40;;;;;;;;;;;19.00;99.90;;;;;;8403963;28;19930;-74
2022/09/14 13:36:42;;;;;;;;;;;19.10;99.90;;;;;;8386227;28;19920;-73
2022/09/14 13:40:45;;;;;;;;;;;19.20;99.90;;;;;;8382293;28;20023;-74
2022/09/14 13:44:48;;;;;;;;;;;19.30;99.90;;;;;;8385520;28;19964;-73
2022/09/14 13:48:51;;;;;;;;;;;19.40;99.90;;;;;;8390968;28;20613;-74
2022/09/14 13:52:53;;;;;;;;;;;19.50;99.90;;;;;;8394157;28;19934;-73
2022/09/14 13:57:14;;;;;;;;;;;19.60;99.90;;;;;;8392181;28;19928;-74
2022/09/14 14:01:26;;;;;;;;;;;19.70;99.90;;;;;;8394678;28;21458;-73
2022/09/14 14:05:29;;;;;;;;;;;19.80;99.90;;;;;;8394209;28;20007;-74
2022/09/14 14:09:50;;;;;;;;;;;20.10;99.90;;;;;;8378717;28;19929;-73
2022/09/14 14:13:52;;;;;;;;;;;20.30;99.90;;;;;;8373911;28;20016;-73
2022/09/14 14:17:54;;;;;;;;;;;20.50;99.90;;;;;;8392179;28;19934;-73
2022/09/14 14:22:11;;;;;;;;;;;20.60;99.90;;;;;;8393700;28;19927;-73
2022/09/14 14:26:14;;;;;;;;;;;20.50;99.90;;;;;;8397992;28;19924;-73
2022/09/14 14:30:17;;;;;;;;;;;20.40;99.90;;;;;;8400786;28;19920;-74
2022/09/14 14:34:21;;;;;;;;;;;20.30;99.90;;;;;;8393299;28;19927;-74
2022/09/14 14:38:23;;;;;;;;;;;20.10;99.90;;;;;;8399663;28;19920;-73
2022/09/14 14:42:25;;;;;;;;;;;20.00;99.90;;;;;;8394096;28;19931;-73
2022/09/14 14:46:27;;;;;;;;;;;19.90;99.90;;;;;;8372442;28;20027;-74
2022/09/14 14:50:32;;;;;;;;;;;19.80;99.90;;;;;;8380426;28;20429;-73
2022/09/14 14:54:34;;;;;;;;;;;19.70;99.90;;;;;;8402798;28;19925;-73
2022/09/14 14:58:41;;;;;;;;;;;19.80;99.90;;;;;;8395995;28;19934;-74
2022/09/14 15:02:42;;;;;;;;;;;20.00;99.90;;;;;;8395745;28;20007;-73
2022/09/14 15:06:45;;;;;;;;;;;20.20;99.90;;;;;;8404959;28;19920;-73
2022/09/14 15:10:47;;;;;;;;;;;20.40;99.90;;;;;;8398090;28;19934;-73
2022/09/14 15:14:49;;;;;;;;;;;20.50;99.90;;;;;;8403328;28;19920;-73
2022/09/14 15:18:51;;;;;;;;;;;20.50;99.90;;;;;;8399511;28;19934;-73
2022/09/14 15:22:52;;;;;;;;;;;20.40;99.90;;;;;;8381027;28;20006;-74
2022/09/14 15:26:54;;;;;;;;;;;20.30;99.90;;;;;;8396754;28;20448;-74
2022/09/14 15:30:57;;;;;;;;;;;20.20;99.90;;;;;;8394532;28;19952;-73
2022/09/14 15:34:58;;;;;;;;;;;20.20;99.90;;;;;;8398656;28;19924;-74
2022/09/14 15:39:00;;;;;;;;;;;20.30;99.90;;;;;;8402132;28;19920;-73
2022/09/14 15:43:02;;;;;;;;;;;20.30;99.90;;;;;;8405868;28;19930;-74
2022/09/14 15:47:03;;;;;;;;;;;20.30;99.90;;;;;;8381153;28;19926;-74
2022/09/14 15:51:08;;;;;;;;;;;20.40;99.90;;;;;;8390471;28;19927;-73
2022/09/14 15:55:11;;;;;;;;;;;20.40;99.90;;;;;;8392936;28;19927;-74
2022/09/14 15:59:12;;;;;;;;;;;20.40;99.90;;;;;;8392906;28;20424;-74
2022/09/14 16:03:14;;;;;;;;;;;20.40;99.90;;;;;;8395075;28;19930;-74
2022/09/14 16:07:16;;;;;;;;;;;20.40;99.90;;;;;;8396769;28;19921;-73
2022/09/14 16:11:17;;;;;;;;;;;20.30;99.90;;;;;;8399526;28;19928;-74
2022/09/14 16:15:19;;;;;;;;;;;20.30;99.90;;;;;;8389945;28;19928;-74
2022/09/14 16:19:20;;;;;;;;;;;20.20;99.90;;;;;;8393092;28;20294;-73
2022/09/14 16:23:22;;;;;;;;;;;20.20;99.90;;;;;;8400902;28;19964;-74
2022/09/14 16:27:24;;;;;;;;;;;20.20;99.90;;;;;;8390215;28;20010;-74
2022/09/14 16:31:30;;;;;;;;;;;20.20;99.90;;;;;;8376433;28;19928;-73
2022/09/14 16:35:32;;;;;;;;;;;20.30;99.90;;;;;;8393105;28;19932;-74
2022/09/14 16:39:34;;;;;;;;;;;20.30;99.90;;;;;;8390353;28;20291;-75
2022/09/14 16:43:35;;;;;;;;;;;20.40;99.90;;;;;;8391843;28;20328;-74
2022/09/14 16:47:37;;;;;;;;;;;20.30;99.90;;;;;;8385267;28;21135;-73
2022/09/14 16:51:39;;;;;;;;;;;20.30;99.90;;;;;;8394243;28;20019;-74
2022/09/14 16:55:40;;;;;;;;;;;20.20;99.90;;;;;;8388280;28;19930;-73
2022/09/14 16:59:42;;;;;;;;;;;20.20;99.90;;;;;;8394649;28;20325;-74
2022/09/14 17:03:45;;;;;;;;;;;20.10;99.90;;;;;;8400134;28;20022;-73
2022/09/14 17:07:46;;;;;;;;;;;20.00;99.90;;;;;;8396118;28;20001;-74
2022/09/14 17:11:48;;;;;;;;;;;19.90;99.90;;;;;;8394442;28;19924;-74
2022/09/14 17:15:50;;;;;;;;;;;19.80;99.90;;;;;;8390732;28;19956;-74
2022/09/14 17:19:51;;;;;;;;;;;19.70;99.90;;;;;;8393636;28;19927;-75
2022/09/14 17:23:53;;;;;;;;;;;19.70;99.90;;;;;;8399665;28;20017;-75
2022/09/14 17:27:55;;;;;;;;;;;19.60;99.90;;;;;;8394108;28;19924;-74
2022/09/14 17:31:56;;;;;;;;;;;19.50;99.90;;;;;;8394132;28;19992;-75
2022/09/14 17:35:58;;;;;;;;;;;19.30;99.90;;;;;;8377499;28;19926;-75
2022/09/14 17:40:00;;;;;;;;;;;19.20;99.90;;;;;;8391718;28;19927;-74
2022/09/14 17:44:03;;;;;;;;;;;19.20;99.90;;;;;;8377410;28;19930;-75
2022/09/14 17:48:05;;;;;;;;;;;19.00;99.90;;;;;;8376427;28;20604;-75
2022/09/14 17:52:07;;;;;;;;;;;19.00;99.90;;;;;;8394065;28;19975;-75
2022/09/14 17:56:09;;;;;;;;;;;18.90;99.90;;;;;;8392184;28;19920;-75
2022/09/14 18:00:11;;;;;;;;;;;18.90;99.90;;;;;;8400488;28;20310;-75
2022/09/14 18:04:14;;;;;;;;;;;18.80;99.90;;;;;;8380968;28;19928;-74
2022/09/14 18:08:16;;;;;;;;;;;18.80;99.90;;;;;;8396783;28;19924;-75
2022/09/14 18:12:18;;;;;;;;;;;18.70;99.90;;;;;;8394392;28;19924;-74
2022/09/14 18:16:21;;;;;;;;;;;18.70;99.90;;;;;;8395014;28;20405;-75
2022/09/14 18:20:23;;;;;;;;;;;18.70;99.90;;;;;;8394137;28;20365;-74
2022/09/14 18:24:25;;;;;;;;;;;18.70;99.90;;;;;;8376738;28;19934;-74
2022/09/14 18:28:27;;;;;;;;;;;18.70;99.90;;;;;;8398217;28;19927;-74
2022/09/14 18:32:29;;;;;;;;;;;18.60;99.90;;;;;;8397040;28;19926;-75
2022/09/14 18:36:30;;;;;;;;;;;18.60;99.90;;;;;;8382346;28;19942;-75
2022/09/14 18:45:48;;;;;;;;;;;18.60;99.90;;;;;;8400588;28;19930;-74
2022/09/14 18:49:49;;;;;;;;;;;18.50;99.90;;;;;;8402083;28;19955;-75
2022/09/14 18:53:55;;;;;;;;;;;18.50;99.90;;;;;;8396124;28;19920;-75
2022/09/14 18:57:57;;;;;;;;;;;18.50;99.90;;;;;;8388632;28;19923;-74
2022/09/14 19:01:58;;;;;;;;;;;18.40;99.90;;;;;;8396024;28;20046;-74
2022/09/14 19:06:07;;;;;;;;;;;18.40;99.90;;;;;;8399215;28;20387;-74
2022/09/14 19:10:09;;;;;;;;;;;18.30;99.90;;;;;;8396142;28;20444;-75
2022/09/14 19:14:12;;;;;;;;;;;18.20;99.90;;;;;;8398473;28;19962;-74
2022/09/14 19:18:14;;;;;;;;;;;18.10;99.90;;;;;;8393383;28;19920;-74
2022/09/14 19:22:15;;;;;;;;;;;18.10;99.90;;;;;;8388981;28;19924;-75
2022/09/14 19:26:19;;;;;;;;;;;18.00;99.90;;;;;;8396513;28;19963;-75
2022/09/14 19:30:21;;;;;;;;;;;17.90;99.90;;;;;;8372881;28;20030;-75
2022/09/14 19:34:23;;;;;;;;;;;17.90;99.90;;;;;;8402725;28;19921;-75
2022/09/14 19:38:25;;;;;;;;;;;17.80;99.90;;;;;;8407660;28;19932;-74
2022/09/14 19:42:26;;;;;;;;;;;17.80;99.90;;;;;;8402600;28;20390;-74
2022/09/14 19:46:30;;;;;;;;;;;17.70;99.90;;;;;;8392524;28;19967;-74
2022/09/14 19:50:31;;;;;;;;;;;17.60;99.90;;;;;;8394491;28;20011;-74
2022/09/14 19:54:33;;;;;;;;;;;17.60;99.90;;;;;;8392972;28;19920;-75
2022/09/14 19:58:36;;;;;;;;;;;17.60;99.90;;;;;;8377044;28;20392;-74
2022/09/14 20:02:56;;;;;;;;;;;17.50;99.90;;;;;;8372147;28;20029;-74
2022/09/14 20:11:58;;;;;;;;;;;17.40;99.90;;;;;;8388153;27;20464;-75
2022/09/14 20:16:07;;;;;;;;;;;17.30;99.90;;;;;;8422836;28;20015;-75
2022/09/14 20:20:10;;;;;;;;;;;17.30;99.90;;;;;;8417990;28;19924;-75
2022/09/14 20:24:13;;;;;;;;;;;17.20;99.90;;;;;;8415796;28;20409;-74
2022/09/14 20:28:17;;;;;;;;;;;17.20;99.90;;;;;;8413934;28;19951;-76
2022/09/14 20:32:19;;;;;;;;;;;17.10;99.90;;;;;;8411557;28;19924;-76
2022/09/14 20:36:21;;;;;;;;;;;17.10;99.90;;;;;;8414929;28;19928;-75
2022/09/14 20:40:23;;;;;;;;;;;17.00;99.90;;;;;;8422042;28;19985;-75
2022/09/14 20:44:24;;;;;;;;;;;17.00;99.90;;;;;;8414985;28;20635;-74
2022/09/14 20:48:26;;;;;;;;;;;16.90;99.90;;;;;;8415701;28;19928;-75
2022/09/14 20:52:28;;;;;;;;;;;16.80;99.90;;;;;;8411851;28;19952;-75
2022/09/14 20:56:30;;;;;;;;;;;16.80;99.90;;;;;;8409110;28;20379;-75
2022/09/14 21:00:32;;;;;;;;;;;16.70;99.90;;;;;;8412759;28;19931;-75
2022/09/14 21:04:34;;;;;;;;;;;16.70;99.90;;;;;;8466069;27;19930;-75
2022/09/14 21:08:36;;;;;;;;;;;16.60;99.90;;;;;;8438337;28;19934;-75
2022/09/14 21:12:38;;;;;;;;;;;16.60;99.90;;;;;;8439810;28;19924;-75
2022/09/14 21:16:41;;;;;;;;;;;16.50;99.90;;;;;;8438130;28;19924;-75
2022/09/14 21:20:43;;;;;;;;;;;16.50;99.90;;;;;;8435838;28;19932;-75
2022/09/14 21:24:45;;;;;;;;;;;16.50;99.90;;;;;;8413920;28;19924;-74
2022/09/14 21:28:47;;;;;;;;;;;16.50;99.90;;;;;;8418257;28;20375;-75
2022/09/14 21:32:48;;;;;;;;;;;16.50;99.90;;;;;;8417358;28;20445;-75
2022/09/14 21:36:50;;;;;;;;;;;16.50;99.90;;;;;;8420966;28;21186;-74
2022/09/14 21:40:52;;;;;;;;;;;16.40;99.90;;;;;;8411141;28;19924;-75
2022/09/14 21:44:53;;;;;;;;;;;16.50;99.90;;;;;;8409118;28;19963;-75
2022/09/14 21:48:55;;;;;;;;;;;16.40;99.90;;;;;;8416258;28;19932;-75
2022/09/14 21:52:57;;;;;;;;;;;16.40;99.90;;;;;;8422225;28;20011;-75
2022/09/14 21:56:58;;;;;;;;;;;16.30;99.90;;;;;;8422811;28;20034;-75
2022/09/14 22:01:01;;;;;;;;;;;16.30;99.90;;;;;;8405542;28;19938;-75
2022/09/14 22:05:03;;;;;;;;;;;16.30;99.90;;;;;;8410752;28;19925;-75
2022/09/14 22:09:04;;;;;;;;;;;16.20;99.90;;;;;;8410789;28;19932;-75
2022/09/14 22:13:06;;;;;;;;;;;16.20;99.90;;;;;;8422553;28;20388;-75
2022/09/14 22:17:08;;;;;;;;;;;16.20;99.90;;;;;;8418828;28;19924;-75
2022/09/14 22:21:09;;;;;;;;;;;16.10;99.90;;;;;;8410184;28;20263;-74
2022/09/14 22:25:11;;;;;;;;;;;16.00;99.90;;;;;;8405883;28;20395;-75
2022/09/14 22:29:13;;;;;;;;;;;16.00;99.90;;;;;;8413897;28;19928;-74
2022/09/14 22:33:15;;;;;;;;;;;15.90;99.90;;;;;;8415028;28;19930;-72
2022/09/14 22:37:16;;;;;;;;;;;15.90;99.90;;;;;;8444942;27;19928;-73
2022/09/14 22:41:21;;;;;;;;;;;15.90;99.90;;;;;;8412812;28;19924;-72
2022/09/14 22:45:23;;;;;;;;;;;15.80;99.90;;;;;;8409558;28;19931;-73
2022/09/14 22:49:24;;;;;;;;;;;15.80;99.90;;;;;;8418561;28;20398;-72
2022/09/14 22:53:27;;;;;;;;;;;15.80;99.90;;;;;;8405988;28;19964;-73
2022/09/14 22:57:28;;;;;;;;;;;15.80;99.90;;;;;;8416215;28;19931;-72
2022/09/14 23:01:31;;;;;;;;;;;15.80;99.90;;;;;;8419502;28;20477;-73
2022/09/14 23:05:34;;;;;;;;;;;15.80;99.90;;;;;;8406311;28;20290;-73
2022/09/14 23:09:36;;;;;;;;;;;15.80;99.90;;;;;;8406258;28;19925;-72
2022/09/14 23:13:38;;;;;;;;;;;15.80;99.90;;;;;;8405848;28;20319;-72
2022/09/14 23:17:40;;;;;;;;;;;15.80;99.90;;;;;;8416267;28;19931;-73
2022/09/14 23:21:42;;;;;;;;;;;15.80;99.90;;;;;;8409515;28;19928;-72
2022/09/14 23:25:43;;;;;;;;;;;15.80;99.90;;;;;;8410864;28;20014;-72
2022/09/14 23:44:56;;;;;;;;;;;15.90;99.90;;;;;;8406577;28;20001;-73
2022/09/14 23:48:57;;;;;;;;;;;15.90;99.90;;;;;;8412306;28;20443;-73
2022/09/14 23:52:59;;;;;;;;;;;15.90;99.90;;;;;;8413201;28;19968;-72
2022/09/14 23:57:01;;;;;;;;;;;15.90;99.90;;;;;;8408082;28;19975;-72
